Time;durP1;ratioP1;P1;durP2;ratioP2;P2;SDS_P1;SDS_P2;PMS_P1;PMS_P2;Temp;Humidity;BMP_temperature;BMP_pressure;BME280_temperature;BME280_humidity;BME280_pressure;Samples;Min_cycle;Max_cycle;Signal;HPM_P1;HPM_P2
2023/03/16 00:02:07;;;;;;;4.07;2.50;;;4.80;99.90;;;;;;5048084;28;20409;-76
2023/03/16 00:04:39;;;;;;;4.67;2.77;;;4.70;99.90;;;;;;5046719;28;20428;-76
2023/03/16 00:07:06;;;;;;;6.27;3.80;;;4.60;99.90;;;;;;5049569;28;20493;-75
2023/03/16 00:09:32;;;;;;;5.23;3.07;;;4.70;99.90;;;;;;5049320;28;20424;-76
2023/03/16 00:12:02;;;;;;;3.90;2.70;;;4.70;99.90;;;;;;5049152;28;20427;-76
2023/03/16 00:14:28;;;;;;;3.90;3.20;;;4.60;99.90;;;;;;5047850;28;20443;-76
2023/03/16 00:16:54;;;;;;;4.10;3.07;;;4.60;99.90;;;;;;5048976;28;20440;-75
2023/03/16 00:19:21;;;;;;;3.27;2.53;;;4.60;99.90;;;;;;5049288;28;20452;-76
2023/03/16 00:21:51;;;;;;;5.27;3.10;;;4.70;99.90;;;;;;5049119;28;20921;-75
2023/03/16 00:24:20;;;;;;;5.00;3.20;;;4.50;99.90;;;;;;5049041;28;20442;-76
2023/03/16 00:26:46;;;;;;;7.63;3.10;;;4.70;99.90;;;;;;5048781;28;20432;-76
2023/03/16 00:29:12;;;;;;;14.80;5.40;;;4.50;99.90;;;;;;5049191;28;20427;-75
2023/03/16 00:31:42;;;;;;;3.40;2.93;;;4.60;99.90;;;;;;5048168;28;20754;-75
2023/03/16 00:34:11;;;;;;;3.87;3.43;;;4.80;99.90;;;;;;5048641;28;20921;-76
2023/03/16 00:36:37;;;;;;;5.70;3.50;;;4.70;99.90;;;;;;5050407;28;20411;-76
2023/03/16 00:39:05;;;;;;;5.23;3.50;;;4.50;99.90;;;;;;5049582;28;20466;-77
2023/03/16 00:41:30;;;;;;;4.70;3.10;;;4.40;99.90;;;;;;5039664;28;20182;-76
2023/03/16 00:43:56;;;;;;;5.63;3.60;;;4.80;99.90;;;;;;5039742;28;20439;-76
2023/03/16 00:46:25;;;;;;;4.00;3.20;;;4.70;99.90;;;;;;5040117;28;20186;-76
2023/03/16 00:48:51;;;;;;;4.83;3.77;;;4.60;99.90;;;;;;5049003;28;20169;-76
2023/03/16 00:51:18;;;;;;;6.00;3.43;;;4.70;99.90;;;;;;5048711;28;20421;-76
2023/03/16 00:53:45;;;;;;;4.03;3.53;;;4.60;99.90;;;;;;5039005;28;20936;-76
2023/03/16 00:56:12;;;;;;;5.83;3.73;;;4.70;99.90;;;;;;5042360;28;20772;-76
2023/03/16 00:58:41;;;;;;;6.00;3.60;;;4.80;99.90;;;;;;5040493;28;20603;-77
2023/03/16 01:01:13;;;;;;;4.87;3.30;;;4.80;99.90;;;;;;5048851;28;20409;-76
2023/03/16 01:03:39;;;;;;;6.10;3.33;;;4.60;99.90;;;;;;5041220;28;21027;-76
2023/03/16 01:06:23;;;;;;;4.13;3.33;;;4.80;99.90;;;;;;5043948;28;20833;-76
2023/03/16 01:08:51;;;;;;;5.50;3.60;;;4.80;99.90;;;;;;5048325;28;20185;-76
2023/03/16 01:11:19;;;;;;;5.10;3.23;;;4.70;99.90;;;;;;5049060;28;20764;-76
2023/03/16 01:13:46;;;;;;;4.20;3.20;;;4.70;99.90;;;;;;5042929;28;20883;-76
2023/03/16 01:16:12;;;;;;;4.90;3.20;;;4.50;99.90;;;;;;5047600;28;20511;-76
2023/03/16 01:18:38;;;;;;;4.40;3.30;;;4.60;99.90;;;;;;5047481;28;20456;-76
2023/03/16 01:21:06;;;;;;;7.10;4.03;;;4.80;99.90;;;;;;5048641;28;20504;-76
2023/03/16 01:23:32;;;;;;;4.33;3.20;;;4.80;99.90;;;;;;5047304;28;20439;-76
2023/03/16 01:25:59;;;;;;;5.60;3.40;;;4.70;99.90;;;;;;5048775;28;20404;-76
2023/03/16 01:28:27;;;;;;;5.90;4.10;;;4.70;99.90;;;;;;5048885;28;20455;-76
2023/03/16 01:30:56;;;;;;;5.93;3.80;;;4.70;99.90;;;;;;5048963;28;20439;-76
2023/03/16 01:33:23;;;;;;;6.13;3.63;;;4.90;99.90;;;;;;5047442;28;20523;-76
2023/03/16 01:36:00;;;;;;;4.47;3.20;;;4.60;99.90;;;;;;5048781;28;20416;-76
2023/03/16 01:38:26;;;;;;;4.27;3.20;;;4.50;99.90;;;;;;5040294;28;20999;-76
2023/03/16 01:40:53;;;;;;;5.57;3.17;;;4.70;99.90;;;;;;5048806;28;20416;-76
2023/03/16 01:43:20;;;;;;;5.50;3.57;;;4.60;99.90;;;;;;5048480;28;20444;-76
2023/03/16 01:46:01;;;;;;;4.50;3.37;;;4.50;99.90;;;;;;5048977;28;20465;-76
2023/03/16 01:48:28;;;;;;;4.87;3.37;;;4.70;99.90;;;;;;5048352;28;20426;-76
2023/03/16 01:50:55;;;;;;;7.60;3.27;;;4.60;99.90;;;;;;5047387;28;20457;-76
2023/03/16 01:53:23;;;;;;;4.33;3.10;;;4.50;99.90;;;;;;5048392;28;20804;-76
2023/03/16 01:55:50;;;;;;;4.27;3.30;;;4.80;99.90;;;;;;5048363;28;20416;-76
2023/03/16 01:58:16;;;;;;;5.63;3.40;;;4.60;99.90;;;;;;5046824;28;20539;-76
2023/03/16 02:00:44;;;;;;;5.60;3.20;;;4.70;99.90;;;;;;5048489;28;20406;-76
2023/03/16 02:03:14;;;;;;;5.20;3.50;;;4.60;99.90;;;;;;5048153;28;20555;-76
2023/03/16 02:06:07;;;;;;;9.33;3.30;;;4.80;99.90;;;;;;5030726;28;20920;-76
2023/03/16 02:08:33;;;;;;;8.10;3.40;;;4.60;99.90;;;;;;5048112;28;20913;-76
2023/03/16 02:11:03;;;;;;;5.27;3.13;;;4.80;99.90;;;;;;5048282;28;20420;-76
2023/03/16 02:13:32;;;;;;;5.60;3.27;;;4.70;99.90;;;;;;5047706;28;20455;-76
2023/03/16 02:15:58;;;;;;;4.83;2.60;;;4.70;99.90;;;;;;5048654;28;20929;-76
2023/03/16 02:18:25;;;;;;;2.90;2.43;;;4.80;99.90;;;;;;5048086;28;21019;-76
2023/03/16 02:21:19;;;;;;;6.80;2.93;;;4.80;99.90;;;;;;5048194;28;20413;-76
2023/03/16 02:23:47;;;;;;;4.57;3.13;;;4.80;99.90;;;;;;5049073;28;20511;-76
2023/03/16 02:26:21;;;;;;;4.23;2.53;;;4.60;99.90;;;;;;5050773;28;20434;-76
2023/03/16 02:29:00;;;;;;;7.03;3.30;;;4.60;99.90;;;;;;5051828;28;20419;-76
2023/03/16 02:31:26;;;;;;;4.00;2.10;;;4.80;99.90;;;;;;5050633;28;20419;-76
2023/03/16 02:33:53;;;;;;;2.97;2.60;;;4.70;99.90;;;;;;5049863;28;21150;-76
2023/03/16 02:36:20;;;;;;;4.57;2.93;;;4.60;99.90;;;;;;5053754;28;21208;-76
2023/03/16 02:38:45;;;;;;;4.37;2.93;;;4.60;99.90;;;;;;5056858;28;20452;-77
2023/03/16 02:41:16;;;;;;;3.70;3.23;;;4.80;99.90;;;;;;5051919;28;20412;-76
2023/03/16 02:44:00;;;;;;;4.90;2.43;;;4.70;99.90;;;;;;5051545;28;20604;-76
2023/03/16 02:46:27;;;;;;;4.20;2.97;;;4.70;99.90;;;;;;5051868;28;20495;-76
2023/03/16 02:49:07;;;;;;;4.17;2.57;;;4.60;99.90;;;;;;5051447;28;20442;-76
2023/03/16 02:51:32;;;;;;;2.97;2.50;;;4.60;99.90;;;;;;5051650;28;20420;-76
2023/03/16 02:53:58;;;;;;;2.80;2.37;;;4.60;99.90;;;;;;5051366;28;20447;-76
2023/03/16 02:56:24;;;;;;;3.20;2.20;;;4.40;99.90;;;;;;5050369;28;20185;-77
2023/03/16 02:58:49;;;;;;;2.90;2.70;;;4.70;99.90;;;;;;5050034;28;20455;-76
2023/03/16 03:01:15;;;;;;;5.10;3.07;;;4.60;99.90;;;;;;5051430;28;20240;-76
2023/03/16 03:03:42;;;;;;;6.00;2.90;;;4.50;99.90;;;;;;5050923;28;20198;-76
2023/03/16 03:06:08;;;;;;;4.23;2.73;;;4.60;99.90;;;;;;5051493;28;20178;-76
2023/03/16 03:08:34;;;;;;;3.03;2.73;;;4.50;99.90;;;;;;5049910;28;20462;-76
2023/03/16 03:10:59;;;;;;;4.03;2.63;;;4.50;99.90;;;;;;5049935;28;20412;-76
2023/03/16 03:13:25;;;;;;;3.80;2.70;;;4.50;99.90;;;;;;5050942;28;20716;-76
2023/03/16 03:15:51;;;;;;;3.50;2.50;;;4.70;99.90;;;;;;5051432;28;20185;-75
2023/03/16 03:18:17;;;;;;;2.80;2.57;;;4.70;99.90;;;;;;5051131;28;20205;-76
2023/03/16 03:20:43;;;;;;;5.93;3.03;;;4.50;99.90;;;;;;5050072;28;20416;-76
2023/03/16 03:23:08;;;;;;;4.00;2.43;;;4.50;99.90;;;;;;5049601;28;20626;-76
2023/03/16 03:25:34;;;;;;;3.00;2.43;;;4.50;99.90;;;;;;5051616;28;20404;-76
2023/03/16 03:28:04;;;;;;;4.33;2.70;;;4.50;99.90;;;;;;5032988;28;20174;-76
2023/03/16 03:30:31;;;;;;;5.33;2.77;;;4.50;99.90;;;;;;5051247;28;20185;-76
2023/03/16 03:32:56;;;;;;;2.67;2.33;;;4.70;99.90;;;;;;5049562;28;21007;-76
2023/03/16 03:35:22;;;;;;;4.00;2.90;;;4.70;99.90;;;;;;5050357;28;20458;-76
2023/03/16 03:37:49;;;;;;;3.30;2.70;;;4.60;99.90;;;;;;5051143;28;20496;-76
2023/03/16 03:40:16;;;;;;;6.07;2.50;;;4.80;99.90;;;;;;5050946;28;20408;-76
2023/03/16 03:42:42;;;;;;;3.53;1.93;;;4.80;99.90;;;;;;5050967;28;20543;-76
2023/03/16 03:45:11;;;;;;;3.70;2.37;;;4.70;99.90;;;;;;5050995;28;21043;-75
2023/03/16 03:47:37;;;;;;;3.43;3.23;;;4.80;99.90;;;;;;5049623;28;20182;-75
2023/03/16 03:50:03;;;;;;;4.60;2.30;;;4.80;99.90;;;;;;5050729;28;20404;-76
2023/03/16 03:52:29;;;;;;;4.60;2.70;;;4.80;99.90;;;;;;5050964;28;20422;-76
2023/03/16 03:54:55;;;;;;;4.17;2.90;;;4.60;99.90;;;;;;5049302;28;20408;-76
2023/03/16 03:57:21;;;;;;;2.97;2.23;;;4.70;99.90;;;;;;5050743;28;20210;-76
2023/03/16 03:59:46;;;;;;;5.00;2.60;;;4.90;99.90;;;;;;5050624;28;20533;-76
2023/03/16 04:02:12;;;;;;;5.20;2.60;;;4.70;99.90;;;;;;5050676;28;20257;-76
2023/03/16 04:04:39;;;;;;;3.10;2.30;;;4.80;99.90;;;;;;5050253;28;20210;-76
2023/03/16 04:07:05;;;;;;;5.13;2.30;;;4.80;99.90;;;;;;5032716;28;20754;-76
2023/03/16 04:09:32;;;;;;;4.07;2.50;;;4.80;99.90;;;;;;5032464;28;20407;-76
2023/03/16 04:12:00;;;;;;;2.37;1.97;;;4.80;99.90;;;;;;5050362;28;20771;-76
2023/03/16 04:14:26;;;;;;;3.20;2.13;;;4.60;99.90;;;;;;5048632;28;20440;-76
2023/03/16 04:16:53;;;;;;;6.87;2.77;;;4.80;99.90;;;;;;5050009;28;20405;-76
2023/03/16 04:19:20;;;;;;;4.27;2.23;;;4.80;99.90;;;;;;5050039;28;20443;-76
2023/03/16 04:21:46;;;;;;;3.87;3.07;;;4.80;99.90;;;;;;5050341;28;20412;-76
2023/03/16 04:24:13;;;;;;;5.17;3.07;;;5.00;99.90;;;;;;5049655;28;21039;-76
2023/03/16 04:26:40;;;;;;;3.60;2.53;;;4.90;99.90;;;;;;5048940;28;20204;-76
2023/03/16 04:29:06;;;;;;;2.70;2.50;;;4.90;99.90;;;;;;5050055;28;20417;-76
2023/03/16 04:31:32;;;;;;;3.30;2.27;;;4.90;99.90;;;;;;5049707;28;20966;-76
2023/03/16 04:33:58;;;;;;;2.40;1.90;;;5.00;99.90;;;;;;5048315;28;20655;-76
2023/03/16 04:36:24;;;;;;;2.43;2.20;;;5.10;99.90;;;;;;5053441;28;20507;-76
2023/03/16 04:38:53;;;;;;;5.20;2.87;;;4.90;99.90;;;;;;5052893;28;20211;-76
2023/03/16 04:41:19;;;;;;;6.60;2.60;;;4.90;99.90;;;;;;5047931;28;20419;-77
2023/03/16 04:43:44;;;;;;;2.97;2.50;;;5.00;99.90;;;;;;5048548;28;20436;-76
2023/03/16 04:46:10;;;;;;;3.30;2.70;;;4.90;99.90;;;;;;5049900;28;20797;-76
2023/03/16 04:48:36;;;;;;;3.90;3.00;;;4.90;99.90;;;;;;5047933;28;20474;-76
2023/03/16 04:51:03;;;;;;;3.40;2.60;;;4.80;99.90;;;;;;5049673;28;20409;-76
2023/03/16 04:53:33;;;;;;;4.60;2.70;;;4.90;99.90;;;;;;5049913;28;20436;-76
2023/03/16 04:55:59;;;;;;;3.10;2.20;;;5.00;99.90;;;;;;5049756;28;20419;-76
2023/03/16 04:58:25;;;;;;;4.47;2.53;;;4.80;99.90;;;;;;5049589;28;20455;-76
2023/03/16 05:00:52;;;;;;;3.43;2.57;;;5.10;99.90;;;;;;5049386;28;20462;-76
2023/03/16 05:03:18;;;;;;;11.33;3.27;;;5.10;99.90;;;;;;5049423;28;20429;-76
2023/03/16 05:05:46;;;;;;;4.63;3.33;;;4.80;99.90;;;;;;5049686;28;20434;-76
2023/03/16 05:08:11;;;;;;;5.20;3.30;;;5.10;99.90;;;;;;5048323;28;20583;-76
2023/03/16 05:10:38;;;;;;;3.57;2.67;;;5.10;99.90;;;;;;5049900;28;20516;-76
2023/03/16 05:13:04;;;;;;;4.00;3.43;;;5.00;99.90;;;;;;5049428;28;20494;-76
2023/03/16 05:15:30;;;;;;;6.30;3.80;;;4.90;99.90;;;;;;5049789;28;20415;-75
2023/03/16 05:17:57;;;;;;;4.83;3.60;;;5.00;99.90;;;;;;5050121;28;20495;-76
2023/03/16 05:20:23;;;;;;;3.53;3.10;;;5.00;99.90;;;;;;5048685;28;20431;-76
2023/03/16 05:22:50;;;;;;;6.17;3.90;;;5.00;99.90;;;;;;5048563;28;20441;-76
2023/03/16 05:25:17;;;;;;;6.10;3.90;;;5.00;99.90;;;;;;5049784;28;20695;-76
2023/03/16 05:27:45;;;;;;;4.37;3.60;;;4.90;99.90;;;;;;5049517;28;21000;-76
2023/03/16 05:30:12;;;;;;;4.83;3.80;;;5.10;99.90;;;;;;5049171;28;20417;-76
2023/03/16 05:32:38;;;;;;;8.43;3.87;;;4.90;99.90;;;;;;5031084;28;20941;-76
2023/03/16 05:35:05;;;;;;;7.43;3.70;;;5.10;99.90;;;;;;5047495;28;20419;-76
2023/03/16 05:37:31;;;;;;;4.93;3.53;;;5.30;99.90;;;;;;5048673;28;20576;-76
2023/03/16 05:39:57;;;;;;;5.73;3.60;;;4.90;99.90;;;;;;5048675;28;20503;-76
2023/03/16 05:42:25;;;;;;;4.70;3.30;;;5.00;99.90;;;;;;5048882;28;20488;-76
2023/03/16 05:44:52;;;;;;;3.80;3.47;;;5.00;99.90;;;;;;5048943;28;20546;-76
2023/03/16 05:47:19;;;;;;;5.13;4.13;;;5.10;99.90;;;;;;5049061;28;20451;-76
2023/03/16 05:49:45;;;;;;;5.20;3.60;;;5.20;99.90;;;;;;5046043;28;20433;-76
2023/03/16 05:52:10;;;;;;;4.60;3.40;;;5.20;99.90;;;;;;5048473;28;20428;-77
2023/03/16 05:54:36;;;;;;;8.07;3.70;;;5.00;99.90;;;;;;5048409;28;20276;-75
2023/03/16 05:57:02;;;;;;;4.70;4.07;;;5.10;99.90;;;;;;5047223;28;20412;-76
2023/03/16 05:59:28;;;;;;;5.47;3.60;;;5.10;99.90;;;;;;5050765;28;20178;-76
2023/03/16 06:01:53;;;;;;;4.97;4.30;;;5.00;99.90;;;;;;5052221;28;20722;-76
2023/03/16 06:04:20;;;;;;;4.93;4.40;;;5.30;99.90;;;;;;5052375;28;20277;-76
2023/03/16 06:06:46;;;;;;;4.50;3.93;;;5.40;99.90;;;;;;5052557;28;20170;-76
2023/03/16 06:09:11;;;;;;;5.73;4.00;;;5.40;99.90;;;;;;5052735;28;21047;-76
2023/03/16 06:11:37;;;;;;;6.73;4.30;;;5.10;99.90;;;;;;5052999;28;20639;-76
2023/03/16 06:14:03;;;;;;;6.87;4.00;;;5.30;99.90;;;;;;5051278;28;20317;-76
2023/03/16 06:16:30;;;;;;;4.20;3.80;;;5.50;99.90;;;;;;5051320;28;20221;-76
2023/03/16 06:18:55;;;;;;;5.43;3.90;;;5.30;99.90;;;;;;5051041;28;20545;-76
2023/03/16 06:21:22;;;;;;;5.33;3.83;;;5.30;99.90;;;;;;5052204;28;20188;-76
2023/03/16 06:23:48;;;;;;;6.20;4.50;;;5.50;99.90;;;;;;5051169;28;20196;-76
2023/03/16 06:26:13;;;;;;;7.90;5.33;;;5.40;99.90;;;;;;5051219;28;20416;-76
2023/03/16 06:28:40;;;;;;;5.37;4.40;;;5.40;99.90;;;;;;5052569;28;20186;-76
2023/03/16 06:31:06;;;;;;;6.00;4.20;;;5.10;99.90;;;;;;5051163;28;20182;-76
2023/03/16 06:33:32;;;;;;;5.30;4.03;;;5.50;99.90;;;;;;5050917;28;20444;-76
2023/03/16 06:35:57;;;;;;;5.27;4.07;;;5.30;99.90;;;;;;5035422;28;20763;-76
2023/03/16 06:38:23;;;;;;;5.83;4.40;;;5.40;99.90;;;;;;5059570;28;20206;-76
2023/03/16 06:40:52;;;;;;;4.80;3.73;;;5.50;99.90;;;;;;5050111;28;20182;-76
2023/03/16 06:43:19;;;;;;;6.57;4.23;;;5.50;99.90;;;;;;5051135;28;20471;-76
2023/03/16 06:45:44;;;;;;;5.53;4.07;;;5.40;99.90;;;;;;5051324;28;20452;-76
2023/03/16 06:48:10;;;;;;;5.60;4.50;;;5.50;99.90;;;;;;5049780;28;20404;-76
2023/03/16 06:50:36;;;;;;;4.67;3.50;;;5.60;99.90;;;;;;5043511;28;20678;-76
2023/03/16 06:53:01;;;;;;;5.13;3.90;;;5.60;99.90;;;;;;5040566;28;20210;-75
2023/03/16 06:55:27;;;;;;;6.00;3.90;;;5.60;99.90;;;;;;5049233;28;20696;-76
2023/03/16 06:57:53;;;;;;;4.30;3.80;;;5.60;99.90;;;;;;5031005;28;20220;-76
2023/03/16 07:00:19;;;;;;;4.90;3.80;;;5.70;99.90;;;;;;5031115;28;20186;-76
2023/03/16 07:02:44;;;;;;;4.70;3.80;;;5.70;99.90;;;;;;5044847;28;20212;-76
2023/03/16 07:05:13;;;;;;;4.80;4.10;;;5.80;99.90;;;;;;5050093;28;20829;-75
2023/03/16 07:07:42;;;;;;;4.30;3.90;;;5.70;99.90;;;;;;5050491;28;20680;-76
2023/03/16 07:10:12;;;;;;;4.87;3.70;;;5.80;99.90;;;;;;5043338;28;21019;-76
2023/03/16 07:12:38;;;;;;;5.70;4.10;;;5.90;99.90;;;;;;5048581;28;20559;-76
2023/03/16 07:15:05;;;;;;;5.73;3.83;;;5.90;99.90;;;;;;5048464;28;20454;-76
2023/03/16 07:17:33;;;;;;;4.07;3.63;;;5.80;99.90;;;;;;5049462;28;20456;-76
2023/03/16 07:19:58;;;;;;;4.37;3.50;;;5.80;99.90;;;;;;5044380;28;20460;-75
2023/03/16 07:22:24;;;;;;;5.13;3.83;;;6.00;99.90;;;;;;5034202;28;20449;-75
2023/03/16 07:24:56;;;;;;;5.53;3.80;;;5.90;99.90;;;;;;5047751;28;20182;-76
2023/03/16 07:27:24;;;;;;;6.23;3.80;;;5.90;99.90;;;;;;5031169;28;20471;-76
2023/03/16 07:29:53;;;;;;;4.97;4.00;;;5.90;99.90;;;;;;5050324;28;20431;-76
2023/03/16 07:32:20;;;;;;;4.63;3.70;;;6.00;99.90;;;;;;5045562;28;20967;-75
2023/03/16 07:34:46;;;;;;;7.93;3.10;;;5.90;99.90;;;;;;5047567;28;20424;-76
2023/03/16 07:37:12;;;;;;;5.17;3.80;;;5.90;99.90;;;;;;5057458;28;20938;-76
2023/03/16 07:39:38;;;;;;;4.03;3.13;;;6.00;99.90;;;;;;5047411;28;20877;-76
2023/03/16 07:42:04;;;;;;;6.03;3.90;;;6.10;99.90;;;;;;5041329;28;20175;-76
2023/03/16 07:44:30;;;;;;;7.20;4.00;;;6.20;99.90;;;;;;5021088;28;20205;-75
2023/03/16 07:46:56;;;;;;;4.37;3.47;;;6.10;99.90;;;;;;5038499;28;20936;-75
2023/03/16 07:49:22;;;;;;;4.30;3.33;;;6.20;99.90;;;;;;5040142;28;20412;-76
2023/03/16 07:51:48;;;;;;;5.20;3.57;;;6.20;99.90;;;;;;5040077;28;20645;-75
2023/03/16 07:54:13;;;;;;;4.13;3.73;;;6.20;99.90;;;;;;5038439;28;20562;-76
2023/03/16 07:56:40;;;;;;;5.27;3.87;;;6.20;99.90;;;;;;5040834;28;20408;-76
2023/03/16 07:59:06;;;;;;;5.50;3.80;;;6.30;99.90;;;;;;5040092;28;20608;-76
2023/03/16 08:01:33;;;;;;;6.30;4.10;;;6.30;99.90;;;;;;5046709;28;20419;-75
2023/03/16 08:04:00;;;;;;;7.53;4.27;;;6.40;99.90;;;;;;5048123;28;20436;-76
2023/03/16 08:06:26;;;;;;;5.13;3.90;;;6.60;99.90;;;;;;5049811;28;20412;-76
2023/03/16 08:08:52;;;;;;;5.90;4.50;;;6.60;99.90;;;;;;5044874;28;20421;-76
2023/03/16 08:11:22;;;;;;;5.10;3.23;;;6.70;99.90;;;;;;5029455;28;20432;-76
2023/03/16 08:13:53;;;;;;;5.97;4.80;;;6.70;99.90;;;;;;5028865;28;20465;-76
2023/03/16 08:16:23;;;;;;;5.37;4.10;;;6.80;99.90;;;;;;5030472;28;20504;-76
2023/03/16 08:18:50;;;;;;;5.27;4.27;;;6.80;99.90;;;;;;5029857;28;20461;-76
2023/03/16 08:21:17;;;;;;;7.50;4.37;;;6.80;99.90;;;;;;5029931;28;20426;-76
2023/03/16 08:23:48;;;;;;;5.27;4.00;;;6.80;99.90;;;;;;5029607;28;20431;-76
2023/03/16 08:26:18;;;;;;;5.87;4.53;;;6.80;99.90;;;;;;5029766;28;20417;-76
2023/03/16 08:28:46;;;;;;;4.90;3.97;;;6.90;99.90;;;;;;5028145;28;20421;-75
2023/03/16 08:31:14;;;;;;;5.47;3.87;;;6.90;99.90;;;;;;5039965;28;20934;-76
2023/03/16 08:33:43;;;;;;;5.93;4.17;;;6.80;99.90;;;;;;5027781;28;20445;-75
2023/03/16 08:36:12;;;;;;;5.07;4.30;;;6.80;99.90;;;;;;5031919;28;20469;-76
2023/03/16 08:38:41;;;;;;;8.47;4.00;;;6.80;99.90;;;;;;5055339;28;20451;-76
2023/03/16 08:41:07;;;;;;;5.70;4.07;;;6.80;99.90;;;;;;5049149;28;20946;-76
2023/03/16 08:43:36;;;;;;;4.33;3.90;;;6.80;99.90;;;;;;5047239;28;20432;-77
2023/03/16 08:46:04;;;;;;;4.40;3.77;;;6.80;99.90;;;;;;5049505;28;20448;-76
2023/03/16 08:48:32;;;;;;;5.93;4.30;;;6.80;99.90;;;;;;5048623;28;20404;-76
2023/03/16 08:51:04;;;;;;;4.97;4.20;;;6.80;99.90;;;;;;5047399;28;20416;-75
2023/03/16 08:53:31;;;;;;;6.60;4.57;;;6.80;99.90;;;;;;5047283;28;20435;-76
2023/03/16 08:56:05;;;;;;;7.00;3.93;;;6.80;99.90;;;;;;5047872;28;20427;-76
2023/03/16 08:58:33;;;;;;;5.50;4.43;;;6.80;99.90;;;;;;5047170;28;20462;-76
2023/03/16 09:01:04;;;;;;;5.70;4.50;;;6.80;99.90;;;;;;5048707;28;20436;-76
2023/03/16 09:03:32;;;;;;;6.27;5.37;;;6.80;99.90;;;;;;5048347;28;20796;-76
2023/03/16 09:06:09;;;;;;;6.20;4.90;;;6.90;99.90;;;;;;5048917;28;20502;-76
2023/03/16 09:08:35;;;;;;;5.90;4.50;;;6.90;99.90;;;;;;5048683;28;20924;-76
2023/03/16 09:11:04;;;;;;;6.10;4.70;;;6.80;99.90;;;;;;5048664;28;20497;-76
2023/03/16 09:13:31;;;;;;;5.07;4.30;;;6.80;99.90;;;;;;5048209;28;20459;-76
2023/03/16 09:15:57;;;;;;;6.73;5.60;;;6.80;99.90;;;;;;5047553;28;20416;-75
2023/03/16 09:18:25;;;;;;;6.27;4.60;;;6.80;99.90;;;;;;5048321;28;20947;-76
2023/03/16 09:20:51;;;;;;;6.90;5.03;;;6.80;99.90;;;;;;5048398;28;20181;-76
2023/03/16 09:23:18;;;;;;;7.23;5.70;;;6.80;99.90;;;;;;5048252;28;20456;-76
2023/03/16 09:25:44;;;;;;;5.83;4.73;;;6.80;99.90;;;;;;5048758;28;20404;-76
2023/03/16 09:28:10;;;;;;;7.37;4.90;;;6.70;99.90;;;;;;5047223;28;20412;-76
2023/03/16 09:30:36;;;;;;;8.37;5.70;;;6.80;99.90;;;;;;5047166;28;20460;-76
2023/03/16 09:33:03;;;;;;;6.27;4.83;;;6.80;99.90;;;;;;5047698;28;20493;-75
2023/03/16 09:35:29;;;;;;;7.10;5.37;;;6.80;99.90;;;;;;5046113;28;20412;-75
2023/03/16 09:37:56;;;;;;;4.87;4.37;;;6.80;99.90;;;;;;5038967;28;20456;-76
2023/03/16 09:40:24;;;;;;;7.83;5.50;;;6.80;99.90;;;;;;5048243;28;20408;-75
2023/03/16 09:43:33;;;;;;;5.57;4.70;;;6.80;99.90;;;;;;5048201;28;20768;-76
2023/03/16 09:46:15;;;;;;;5.83;4.70;;;6.90;99.90;;;;;;5048484;28;20901;-75
2023/03/16 09:48:41;;;;;;;6.67;4.97;;;7.00;99.90;;;;;;5048108;28;20431;-75
2023/03/16 09:51:19;;;;;;;5.50;4.50;;;7.10;99.90;;;;;;5048133;28;20424;-76
2023/03/16 09:53:46;;;;;;;6.17;4.60;;;7.10;99.90;;;;;;5048059;28;20789;-76
2023/03/16 09:56:32;;;;;;;6.30;4.87;;;7.30;99.90;;;;;;5047309;28;20416;-76
2023/03/16 09:58:58;;;;;;;5.20;4.50;;;7.40;99.90;;;;;;5046609;28;20496;-76
2023/03/16 10:01:47;;;;;;;6.17;5.00;;;7.50;99.90;;;;;;5048155;28;20451;-75
2023/03/16 10:04:21;;;;;;;5.90;5.07;;;7.60;99.90;;;;;;5047636;28;20186;-76
2023/03/16 10:07:08;;;;;;;7.80;4.97;;;7.80;99.90;;;;;;5047297;28;20418;-76
2023/03/16 10:09:54;;;;;;;6.33;4.50;;;7.90;99.90;;;;;;5046806;28;20404;-75
2023/03/16 10:12:23;;;;;;;5.10;4.33;;;8.00;99.90;;;;;;5046993;28;20557;-76
2023/03/16 10:14:57;;;;;;;5.50;4.60;;;8.00;99.90;;;;;;5047157;28;20474;-75
2023/03/16 10:17:32;;;;;;;5.37;4.37;;;8.00;99.90;;;;;;5047949;28;20447;-76
2023/03/16 10:20:07;;;;;;;6.40;4.90;;;8.00;99.90;;;;;;5046646;28;20431;-76
2023/03/16 10:22:37;;;;;;;5.93;4.30;;;8.00;99.90;;;;;;5047948;28;20428;-75
2023/03/16 10:25:10;;;;;;;5.80;4.20;;;7.90;99.90;;;;;;5047248;28;20989;-76
2023/03/16 10:27:38;;;;;;;6.13;4.77;;;8.00;99.90;;;;;;5046720;28;20440;-76
2023/03/16 10:30:17;;;;;;;6.03;4.87;;;8.00;99.90;;;;;;5047634;28;20490;-76
2023/03/16 10:32:43;;;;;;;5.80;4.90;;;8.10;99.90;;;;;;5048057;28;20805;-76
2023/03/16 10:35:33;;;;;;;4.73;4.20;;;8.10;99.90;;;;;;5046862;28;20416;-76
2023/03/16 10:37:59;;;;;;;5.80;4.80;;;8.10;99.90;;;;;;5055224;28;20259;-76
2023/03/16 10:40:29;;;;;;;6.40;4.83;;;8.10;99.90;;;;;;5047621;28;20420;-76
2023/03/16 10:42:55;;;;;;;8.87;4.13;;;8.20;99.90;;;;;;5047849;28;20447;-76
2023/03/16 10:45:33;;;;;;;5.80;4.23;;;8.10;99.90;;;;;;5046959;28;20784;-76
2023/03/16 10:48:13;;;;;;;6.00;4.67;;;8.10;99.90;;;;;;5051154;28;20582;-76
2023/03/16 10:50:40;;;;;;;6.37;3.83;;;8.10;99.90;;;;;;5051133;28;20431;-75
2023/03/16 10:53:20;;;;;;;5.37;4.07;;;8.10;99.90;;;;;;5049725;28;20533;-76
2023/03/16 10:55:46;;;;;;;4.90;3.80;;;8.20;99.90;;;;;;5051328;28;20921;-76
2023/03/16 10:58:26;;;;;;;4.80;4.23;;;8.20;99.90;;;;;;5051080;28;20495;-76
2023/03/16 11:00:52;;;;;;;6.10;4.10;;;8.20;99.90;;;;;;5050926;28;20765;-75
2023/03/16 11:03:25;;;;;;;7.47;4.47;;;8.10;99.90;;;;;;5050795;28;20538;-76
2023/03/16 11:06:23;;;;;;;5.00;4.03;;;8.20;99.90;;;;;;5050914;28;20498;-76
2023/03/16 11:08:53;;;;;;;6.00;4.10;;;8.20;99.90;;;;;;5050748;28;20525;-76
2023/03/16 11:11:32;;;;;;;5.43;3.80;;;8.20;99.90;;;;;;5050767;28;20416;-76
2023/03/16 11:14:01;;;;;;;3.93;3.53;;;8.20;99.90;;;;;;5048541;28;20483;-76
2023/03/16 11:16:50;;;;;;;5.53;3.50;;;8.30;99.90;;;;;;5050893;28;20417;-76
2023/03/16 11:19:20;;;;;;;5.10;3.73;;;8.20;99.90;;;;;;5050636;28;20460;-76
2023/03/16 11:21:57;;;;;;;3.87;3.10;;;8.30;99.90;;;;;;5050834;28;20773;-76
2023/03/16 11:24:40;;;;;;;5.90;3.87;;;8.20;99.90;;;;;;5049002;28;20864;-76
2023/03/16 11:27:18;;;;;;;5.53;3.23;;;8.30;99.90;;;;;;5050720;28;20447;-75
2023/03/16 11:30:04;;;;;;;6.67;3.10;;;8.30;99.90;;;;;;5050420;28;20553;-76
2023/03/16 11:32:36;;;;;;;4.43;2.90;;;8.30;99.90;;;;;;5050645;28;20420;-76
2023/03/16 11:35:11;;;;;;;4.23;2.97;;;8.40;99.90;;;;;;5049795;28;20420;-76
2023/03/16 11:37:45;;;;;;;3.60;2.77;;;8.50;99.90;;;;;;5059117;28;20542;-76
2023/03/16 11:40:38;;;;;;;4.47;3.20;;;8.50;99.90;;;;;;5049003;28;20412;-76
2023/03/16 11:43:40;;;;;;;4.73;2.97;;;8.70;99.90;;;;;;5050058;28;20440;-76
2023/03/16 11:46:17;;;;;;;5.27;3.13;;;8.80;99.90;;;;;;5049119;28;20918;-76
2023/03/16 11:48:55;;;;;;;4.30;2.50;;;9.00;99.90;;;;;;5050200;28;20858;-76
2023/03/16 11:51:41;;;;;;;4.13;2.67;;;9.20;99.90;;;;;;5050043;28;20427;-75
2023/03/16 11:54:19;;;;;;;3.37;2.77;;;9.40;99.90;;;;;;5049903;28;20435;-76
2023/03/16 11:56:56;;;;;;;6.33;3.10;;;9.60;99.90;;;;;;5049420;28;20789;-76
2023/03/16 12:00:06;;;;;;;4.73;2.73;;;9.60;99.90;;;;;;5049953;28;20675;-75
2023/03/16 12:03:05;;;;;;;7.27;2.37;;;9.80;99.60;;;;;;5044589;28;20416;-76
2023/03/16 12:05:55;;;;;;;3.10;2.30;;;10.00;99.40;;;;;;5050124;28;20408;-76
2023/03/16 12:08:39;;;;;;;2.90;2.37;;;10.10;99.20;;;;;;5048720;28;20714;-76
2023/03/16 12:11:22;;;;;;;3.03;2.73;;;10.30;98.50;;;;;;5049657;28;20507;-76
2023/03/16 12:14:10;;;;;;;4.00;2.30;;;10.40;97.40;;;;;;5048787;28;20490;-75
2023/03/16 12:16:51;;;;;;;3.97;2.27;;;10.50;96.20;;;;;;5048465;28;20413;-76
2023/03/16 12:19:29;;;;;;;2.60;2.40;;;10.60;96.70;;;;;;5049772;28;20456;-76
2023/03/16 12:22:18;;;;;;;3.13;2.10;;;10.70;96.10;;;;;;5048230;28;20416;-76
2023/03/16 12:24:45;;;;;;;4.07;2.50;;;10.80;95.80;;;;;;5031488;28;20419;-76
2023/03/16 12:27:32;;;;;;;3.80;2.33;;;10.80;96.00;;;;;;5049268;28;20451;-76
2023/03/16 12:30:36;;;;;;;4.83;2.07;;;10.80;95.50;;;;;;5049541;28;20656;-76
2023/03/16 12:33:25;;;;;;;3.97;2.37;;;10.70;95.30;;;;;;5049227;28;20451;-76
2023/03/16 12:36:02;;;;;;;3.30;2.10;;;10.70;94.70;;;;;;5037047;28;20779;-76
2023/03/16 12:38:42;;;;;;;3.47;2.30;;;10.70;95.40;;;;;;5041953;28;20482;-77
2023/03/16 12:41:26;;;;;;;2.77;1.83;;;10.70;95.60;;;;;;5049922;28;20408;-77
2023/03/16 12:44:14;;;;;;;2.43;2.23;;;10.60;95.40;;;;;;5049663;28;20494;-76
2023/03/16 12:46:52;;;;;;;3.37;1.97;;;10.50;95.50;;;;;;5048455;28;20409;-76
2023/03/16 12:49:19;;;;;;;2.80;2.20;;;10.50;95.70;;;;;;5049467;28;20503;-76
2023/03/16 12:51:47;;;;;;;3.63;2.30;;;10.40;96.10;;;;;;5049566;28;20478;-76
2023/03/16 12:54:20;;;;;;;3.97;2.33;;;10.40;96.00;;;;;;5048268;28;20898;-76
2023/03/16 12:56:48;;;;;;;3.57;1.93;;;10.30;95.60;;;;;;5031215;28;20421;-77
2023/03/16 12:59:22;;;;;;;2.37;2.10;;;10.20;96.50;;;;;;5048127;28;20593;-76
2023/03/16 13:01:50;;;;;;;6.13;2.17;;;10.30;96.30;;;;;;5048101;28;20921;-76
2023/03/16 13:04:32;;;;;;;2.67;2.10;;;10.20;96.80;;;;;;5049047;28;20436;-76
2023/03/16 13:07:15;;;;;;;4.50;2.27;;;10.30;96.70;;;;;;5047882;28;20503;-76
2023/03/16 13:09:48;;;;;;;3.50;2.40;;;10.30;96.60;;;;;;5047710;28;20420;-76
2023/03/16 13:12:31;;;;;;;2.57;2.30;;;10.30;96.40;;;;;;5045259;28;20809;-76